Time;durP1;ratioP1;P1;durP2;ratioP2;P2;SDS_P1;SDS_P2;PMS_P1;PMS_P2;Temp;Humidity;BMP_temperature;BMP_pressure;BME280_temperature;BME280_humidity;BME280_pressure;Samples;Min_cycle;Max_cycle;Signal;HPM_P1;HPM_P2
2023/12/16 00:01:08;;;;;;;92.35;58.30;;;20.00;70.30;;;;;;4959970;28;20428;-61
2023/12/16 00:03:34;;;;;;;93.40;61.15;;;20.00;70.40;;;;;;4959775;28;20027;-61
2023/12/16 00:06:00;;;;;;;95.72;62.28;;;20.00;70.50;;;;;;4955321;28;20161;-61
2023/12/16 00:08:25;;;;;;;96.18;61.58;;;20.00;70.60;;;;;;4955833;28;20105;-62
2023/12/16 00:10:51;;;;;;;96.03;63.20;;;20.00;70.70;;;;;;4939550;28;20069;-61
2023/12/16 00:13:17;;;;;;;96.65;64.63;;;20.00;70.80;;;;;;4959282;28;20018;-59
2023/12/16 00:15:42;;;;;;;95.30;64.50;;;20.00;71.20;;;;;;4957487;28;20123;-63
2023/12/16 00:18:08;;;;;;;104.65;66.68;;;20.00;71.30;;;;;;4938403;29;20035;-64
2023/12/16 00:20:33;;;;;;;103.18;61.50;;;20.00;71.30;;;;;;4955677;28;20027;-62
2023/12/16 00:22:59;;;;;;;105.90;66.15;;;20.00;71.50;;;;;;4957592;28;20023;-62
2023/12/16 00:25:26;;;;;;;106.03;69.82;;;20.00;71.40;;;;;;4954735;28;20027;-62
2023/12/16 00:27:52;;;;;;;104.65;71.03;;;20.00;71.50;;;;;;4956809;28;20072;-62
2023/12/16 00:30:17;;;;;;;101.20;68.80;;;20.00;71.50;;;;;;4958105;28;20080;-62
2023/12/16 00:32:43;;;;;;;91.20;60.22;;;20.00;71.30;;;;;;4961844;28;20015;-62
2023/12/16 00:35:09;;;;;;;90.55;60.10;;;20.00;71.40;;;;;;4964569;28;20367;-61
2023/12/16 00:37:35;;;;;;;79.60;56.53;;;20.00;71.50;;;;;;4965367;28;20115;-62
2023/12/16 00:40:02;;;;;;;72.88;51.42;;;19.90;71.50;;;;;;4954362;28;20344;-61
2023/12/16 00:42:29;;;;;;;89.55;62.28;;;19.90;71.80;;;;;;4961866;28;20023;-61
2023/12/16 00:44:56;;;;;;;77.15;50.97;;;19.80;71.90;;;;;;4962975;28;20031;-60
2023/12/16 00:47:21;;;;;;;77.55;54.47;;;19.80;72.10;;;;;;4964792;28;20030;-60
2023/12/16 00:49:47;;;;;;;73.10;49.67;;;19.80;72.30;;;;;;4963453;28;20027;-60
2023/12/16 00:52:13;;;;;;;77.30;49.63;;;19.70;72.30;;;;;;4982704;28;20027;-59
2023/12/16 00:54:38;;;;;;;74.82;51.63;;;19.80;72.40;;;;;;4961327;28;20049;-61
2023/12/16 00:57:04;;;;;;;75.68;51.40;;;19.80;72.50;;;;;;4964035;28;20371;-61
2023/12/16 00:59:29;;;;;;;71.70;49.08;;;19.80;72.50;;;;;;4965196;28;20478;-60
2023/12/16 01:01:55;;;;;;;73.55;48.35;;;19.70;72.60;;;;;;4962223;28;20510;-59
2023/12/16 01:04:20;;;;;;;75.35;50.15;;;19.70;72.70;;;;;;4961375;28;20030;-63
2023/12/16 01:06:46;;;;;;;67.68;45.67;;;19.70;72.80;;;;;;4961168;28;20496;-60
2023/12/16 01:09:12;;;;;;;75.95;52.22;;;19.80;72.80;;;;;;4964945;28;20023;-60
2023/12/16 01:11:37;;;;;;;70.40;48.38;;;19.70;72.80;;;;;;4964624;28;20026;-60
2023/12/16 01:14:03;;;;;;;86.38;56.92;;;19.80;72.70;;;;;;4961082;28;20038;-60
2023/12/16 01:16:29;;;;;;;84.95;53.10;;;19.80;72.60;;;;;;4960953;28;20105;-60
2023/12/16 01:18:54;;;;;;;84.57;55.42;;;19.80;72.80;;;;;;4962639;28;20035;-61
2023/12/16 01:21:20;;;;;;;70.70;42.88;;;19.80;72.60;;;;;;4965488;28;20027;-61
2023/12/16 01:23:46;;;;;;;75.90;52.00;;;19.80;73.00;;;;;;4963233;28;20023;-61
2023/12/16 01:26:12;;;;;;;87.55;57.92;;;19.80;73.20;;;;;;4960710;28;20034;-63
2023/12/16 01:28:38;;;;;;;75.38;50.28;;;19.90;72.90;;;;;;4961178;28;20483;-63
2023/12/16 01:31:04;;;;;;;66.47;45.63;;;19.90;73.20;;;;;;4964002;28;20065;-59
2023/12/16 01:33:29;;;;;;;64.47;41.83;;;19.90;73.20;;;;;;4964551;28;20394;-62
2023/12/16 01:35:55;;;;;;;78.05;52.85;;;19.90;73.20;;;;;;4961008;28;20055;-62
2023/12/16 01:38:22;;;;;;;78.30;52.28;;;19.90;73.10;;;;;;4961184;28;20544;-63
2023/12/16 01:40:48;;;;;;;61.67;41.95;;;19.90;73.10;;;;;;4961487;28;20034;-63
2023/12/16 01:43:14;;;;;;;60.05;40.80;;;19.90;73.20;;;;;;4960456;28;20094;-63
2023/12/16 01:45:40;;;;;;;51.63;34.22;;;19.80;73.20;;;;;;4960102;28;20038;-63
2023/12/16 01:48:06;;;;;;;58.08;38.65;;;19.80;73.30;;;;;;4957939;28;20051;-63
2023/12/16 01:50:33;;;;;;;45.13;30.10;;;19.90;73.40;;;;;;4957735;28;20019;-63
2023/12/16 01:53:00;;;;;;;67.25;42.28;;;19.80;73.50;;;;;;4981364;28;20102;-62
2023/12/16 01:55:26;;;;;;;67.88;46.97;;;19.80;73.40;;;;;;4960437;28;20019;-63
2023/12/16 01:57:55;;;;;;;58.22;40.78;;;19.80;73.90;;;;;;4959017;28;20027;-63
2023/12/16 02:00:21;;;;;;;59.53;41.05;;;19.80;73.90;;;;;;4957911;28;20037;-63
2023/12/16 02:02:47;;;;;;;62.85;42.50;;;19.80;74.00;;;;;;4958063;28;20019;-63
2023/12/16 02:05:13;;;;;;;65.03;43.95;;;19.80;73.80;;;;;;4960479;28;20042;-63
2023/12/16 02:07:38;;;;;;;68.03;45.70;;;19.90;74.10;;;;;;4960744;28;20042;-60
2023/12/16 02:10:04;;;;;;;56.35;35.95;;;19.90;74.00;;;;;;4957632;28;20024;-60
2023/12/16 02:12:36;;;;;;;61.33;43.03;;;19.90;74.40;;;;;;4957671;28;20030;-59
2023/12/16 02:15:02;;;;;;;56.35;31.67;;;19.90;73.80;;;;;;4959429;28;20033;-58
2023/12/16 02:17:28;;;;;;;55.40;37.28;;;19.90;74.10;;;;;;4960548;28;20080;-60
2023/12/16 02:19:54;;;;;;;55.08;36.70;;;19.90;74.00;;;;;;4958333;28;20023;-60
2023/12/16 02:22:21;;;;;;;65.43;42.40;;;19.90;74.10;;;;;;4957633;28;20019;-60
2023/12/16 02:24:48;;;;;;;57.72;40.72;;;19.90;73.90;;;;;;4957538;28;20027;-61
2023/12/16 02:27:13;;;;;;;41.97;30.58;;;19.90;74.00;;;;;;4960300;28;20061;-60
2023/12/16 02:29:39;;;;;;;59.20;40.55;;;19.90;74.20;;;;;;4942896;28;20050;-61
2023/12/16 02:32:06;;;;;;;48.97;32.72;;;19.90;74.00;;;;;;4957363;28;20034;-59
2023/12/16 02:34:31;;;;;;;57.05;39.63;;;19.90;74.00;;;;;;4957207;28;20046;-61
2023/12/16 02:36:57;;;;;;;49.65;35.15;;;19.80;73.90;;;;;;4958814;28;20027;-63
2023/12/16 02:39:22;;;;;;;51.03;34.58;;;19.90;74.10;;;;;;4960677;28;20023;-61
2023/12/16 02:41:48;;;;;;;53.40;36.88;;;19.90;74.00;;;;;;4958869;28;20031;-61
2023/12/16 02:44:14;;;;;;;34.58;24.23;;;19.90;74.00;;;;;;4957008;28;20097;-62
2023/12/16 02:46:39;;;;;;;40.47;28.35;;;19.90;74.00;;;;;;4956332;28;20561;-63
2023/12/16 02:49:05;;;;;;;51.35;35.17;;;19.80;74.00;;;;;;4959896;28;20030;-63
2023/12/16 02:51:30;;;;;;;39.47;26.60;;;19.90;73.90;;;;;;4978667;28;20167;-63
2023/12/16 02:53:56;;;;;;;54.70;35.20;;;19.90;73.90;;;;;;4960144;28;20023;-62
2023/12/16 02:56:22;;;;;;;39.95;27.17;;;19.80;73.80;;;;;;4956639;28;20038;-60
2023/12/16 02:58:48;;;;;;;32.03;22.17;;;19.90;73.90;;;;;;4957530;28;20023;-59
2023/12/16 03:01:15;;;;;;;33.97;24.58;;;19.80;74.00;;;;;;4960281;28;20034;-63
2023/12/16 03:03:41;;;;;;;30.88;21.10;;;19.80;74.00;;;;;;4960029;28;20106;-63
2023/12/16 03:06:07;;;;;;;36.80;25.45;;;19.80;74.00;;;;;;4956603;28;20142;-62
2023/12/16 03:08:34;;;;;;;37.45;27.20;;;19.80;73.90;;;;;;4949885;29;20034;-57
2023/12/16 03:11:00;;;;;;;38.40;26.67;;;19.80;74.00;;;;;;4958987;28;20024;-59
2023/12/16 03:13:26;;;;;;;30.23;20.55;;;19.80;74.10;;;;;;4960026;28;20023;-54
2023/12/16 03:15:52;;;;;;;36.13;23.75;;;19.80;74.00;;;;;;4957363;28;20030;-56
2023/12/16 03:18:18;;;;;;;44.65;30.40;;;19.80;74.10;;;;;;4957433;28;20023;-57
2023/12/16 03:20:43;;;;;;;34.83;23.67;;;19.70;73.90;;;;;;4957611;28;20027;-58
2023/12/16 03:23:09;;;;;;;34.10;22.65;;;19.80;74.10;;;;;;4960491;28;20051;-59
2023/12/16 03:25:37;;;;;;;27.08;18.10;;;19.80;74.10;;;;;;4959607;28;20518;-59
2023/12/16 03:28:03;;;;;;;39.17;26.23;;;19.80;74.10;;;;;;4948777;28;20031;-58
2023/12/16 03:30:29;;;;;;;39.20;26.77;;;19.80;74.10;;;;;;4956382;28;20027;-57
2023/12/16 03:32:54;;;;;;;46.17;31.73;;;19.80;74.10;;;;;;4957981;28;20034;-58
2023/12/16 03:35:21;;;;;;;41.90;29.73;;;19.80;74.10;;;;;;4958736;28;20030;-59
2023/12/16 03:37:47;;;;;;;45.08;28.65;;;19.80;74.20;;;;;;4958680;28;20026;-59
2023/12/16 03:40:13;;;;;;;42.28;26.77;;;19.90;74.10;;;;;;4939160;29;20426;-59
2023/12/16 03:42:38;;;;;;;45.70;28.75;;;19.90;74.00;;;;;;4956753;28;20031;-59
2023/12/16 03:45:04;;;;;;;54.72;29.45;;;20.00;74.10;;;;;;4958555;28;20046;-60
2023/12/16 03:47:30;;;;;;;47.17;27.23;;;20.00;73.80;;;;;;4959102;28;20033;-60
2023/12/16 03:49:55;;;;;;;33.97;19.75;;;20.00;73.90;;;;;;4957201;28;20098;-58
2023/12/16 03:52:21;;;;;;;28.63;18.75;;;20.00;74.00;;;;;;4977704;28;20023;-58
2023/12/16 03:54:47;;;;;;;33.22;23.13;;;19.90;74.20;;;;;;4956176;28;20077;-58
2023/12/16 03:57:12;;;;;;;29.83;19.92;;;19.90;74.10;;;;;;4959026;28;20034;-59
2023/12/16 03:59:38;;;;;;;25.17;17.00;;;19.90;74.30;;;;;;4959114;28;20083;-61
2023/12/16 04:02:03;;;;;;;37.30;24.13;;;19.90;74.20;;;;;;4956041;28;20034;-61
2023/12/16 04:04:29;;;;;;;27.13;16.65;;;19.90;74.30;;;;;;4955446;28;20114;-59
2023/12/16 04:06:58;;;;;;;23.15;15.10;;;19.90;74.30;;;;;;4956909;28;20114;-60
2023/12/16 04:09:24;;;;;;;28.52;16.70;;;19.80;74.40;;;;;;4959333;28;20470;-59
2023/12/16 04:11:49;;;;;;;23.17;15.75;;;19.80;74.50;;;;;;4957610;28;20023;-60
2023/12/16 04:14:15;;;;;;;26.33;16.83;;;19.80;74.60;;;;;;4938135;28;20126;-61
2023/12/16 04:16:41;;;;;;;23.50;16.25;;;19.80;74.60;;;;;;4955459;28;20555;-59
2023/12/16 04:19:06;;;;;;;30.35;19.08;;;19.80;74.70;;;;;;4958864;28;20110;-59
2023/12/16 04:21:35;;;;;;;23.77;15.02;;;19.80;74.80;;;;;;4959190;28;20114;-61
2023/12/16 04:24:00;;;;;;;20.92;14.15;;;19.80;74.80;;;;;;4955706;28;20019;-60
2023/12/16 04:26:26;;;;;;;19.73;14.10;;;19.70;74.80;;;;;;4955512;28;20072;-62
2023/12/16 04:28:51;;;;;;;29.42;20.90;;;19.80;74.90;;;;;;4956580;28;20073;-56
2023/12/16 04:31:17;;;;;;;24.08;16.38;;;19.80;74.90;;;;;;4959210;28;20015;-56
2023/12/16 04:33:43;;;;;;;18.73;13.95;;;19.80;75.10;;;;;;4958243;28;20096;-57
2023/12/16 04:36:18;;;;;;;31.70;18.70;;;19.80;75.10;;;;;;4955099;28;20557;-58
2023/12/16 04:38:44;;;;;;;27.20;17.95;;;19.80;75.10;;;;;;4955874;28;20371;-60
2023/12/16 04:41:16;;;;;;;21.08;13.90;;;19.80;74.80;;;;;;4958624;28;20053;-60
2023/12/16 04:43:41;;;;;;;19.17;13.20;;;19.80;75.00;;;;;;4957923;28;20090;-60
2023/12/16 04:46:07;;;;;;;23.67;16.35;;;19.80;75.00;;;;;;4954795;28;20632;-59
2023/12/16 04:48:33;;;;;;;22.80;15.90;;;19.80;75.00;;;;;;4955618;28;20031;-61
2023/12/16 04:51:06;;;;;;;19.50;13.82;;;19.70;74.90;;;;;;4957925;28;20027;-60
2023/12/16 04:53:33;;;;;;;17.63;11.82;;;19.80;75.00;;;;;;4975640;28;20030;-59
2023/12/16 04:55:58;;;;;;;19.92;13.93;;;19.80;75.00;;;;;;4955118;28;20114;-58
2023/12/16 04:58:25;;;;;;;17.88;11.98;;;19.80;74.90;;;;;;4955701;28;20062;-57
2023/12/16 05:00:51;;;;;;;22.38;13.60;;;19.80;74.90;;;;;;4956300;28;20395;-60
2023/12/16 05:03:17;;;;;;;15.75;10.68;;;19.80;75.00;;;;;;4958916;28;20029;-61
2023/12/16 05:05:42;;;;;;;18.38;12.15;;;19.80;74.90;;;;;;4957184;28;20023;-60
2023/12/16 05:08:09;;;;;;;19.77;13.43;;;19.80;75.00;;;;;;4955408;28;20023;-60
2023/12/16 05:10:35;;;;;;;18.92;12.55;;;19.80;74.90;;;;;;4955309;28;20019;-60
2023/12/16 05:13:00;;;;;;;17.45;11.43;;;19.80;75.00;;;;;;4957366;28;20363;-60
2023/12/16 05:15:26;;;;;;;15.13;10.07;;;19.70;75.00;;;;;;4957745;28;20413;-56
2023/12/16 05:17:52;;;;;;;21.58;12.65;;;19.70;75.00;;;;;;4958495;28;20034;-58
2023/12/16 05:20:17;;;;;;;17.10;9.82;;;19.70;75.00;;;;;;4958619;28;20364;-58
2023/12/16 05:22:43;;;;;;;21.45;12.20;;;19.70;75.10;;;;;;4958541;28;20042;-58
2023/12/16 05:25:08;;;;;;;17.10;10.68;;;19.80;75.10;;;;;;4960883;28;20529;-57
2023/12/16 05:27:34;;;;;;;20.50;12.77;;;19.80;75.10;;;;;;4961943;28;20026;-57
2023/12/16 05:30:02;;;;;;;19.23;11.25;;;19.70;75.00;;;;;;4958970;28;20403;-61
2023/12/16 05:32:27;;;;;;;20.23;13.68;;;19.70;75.10;;;;;;4958526;28;20475;-60
2023/12/16 05:34:56;;;;;;;28.17;12.68;;;19.70;75.00;;;;;;4959293;28;20073;-61
2023/12/16 05:37:22;;;;;;;24.13;13.32;;;19.70;75.10;;;;;;4961415;28;20100;-59
2023/12/16 05:39:48;;;;;;;14.30;9.35;;;19.80;75.10;;;;;;4960178;28;20031;-59
2023/12/16 05:42:13;;;;;;;16.10;10.75;;;19.80;75.00;;;;;;4958543;28;20394;-59
2023/12/16 05:44:39;;;;;;;12.25;8.35;;;19.70;75.00;;;;;;4940551;28;20027;-58
2023/12/16 05:47:07;;;;;;;16.38;10.52;;;19.80;75.00;;;;;;4960728;28;20031;-57
2023/12/16 05:49:32;;;;;;;12.18;8.63;;;19.70;75.10;;;;;;4961598;28;20027;-58
2023/12/16 05:51:58;;;;;;;15.25;10.13;;;19.70;75.00;;;;;;4980614;28;20216;-58
2023/12/16 05:54:24;;;;;;;13.00;9.50;;;19.80;75.10;;;;;;4957772;28;20030;-58
2023/12/16 05:56:50;;;;;;;12.80;9.00;;;19.70;75.10;;;;;;4941008;28;20110;-56
2023/12/16 05:59:16;;;;;;;13.45;9.27;;;19.70;75.10;;;;;;4961518;28;20516;-57
2023/12/16 06:01:41;;;;;;;14.23;10.68;;;19.80;75.20;;;;;;4960788;28;20031;-56
2023/12/16 06:04:07;;;;;;;12.43;7.65;;;19.80;75.20;;;;;;4957944;28;20054;-57
2023/12/16 06:06:33;;;;;;;14.32;8.02;;;19.80;75.30;;;;;;4957383;28;20062;-59
2023/12/16 06:08:58;;;;;;;13.18;7.72;;;19.70;75.30;;;;;;4942583;28;20705;-58
2023/12/16 06:11:24;;;;;;;15.75;10.18;;;19.80;75.30;;;;;;4961304;28;20018;-58
2023/12/16 06:13:53;;;;;;;11.90;8.48;;;19.70;75.30;;;;;;4959107;28;20499;-58
2023/12/16 06:16:18;;;;;;;10.98;7.95;;;19.80;75.30;;;;;;4957481;28;20034;-59
2023/12/16 06:18:46;;;;;;;9.32;6.93;;;19.80;75.40;;;;;;4957859;28;20027;-59
2023/12/16 06:21:12;;;;;;;12.80;8.30;;;19.80;75.40;;;;;;4961035;28;20035;-62
2023/12/16 06:23:37;;;;;;;12.07;8.02;;;19.80;75.50;;;;;;4960867;28;20076;-61
2023/12/16 06:26:03;;;;;;;10.57;8.00;;;19.80;75.50;;;;;;4957291;28;20031;-61
2023/12/16 06:28:29;;;;;;;19.35;10.88;;;19.70;75.60;;;;;;4957263;28;20028;-61
2023/12/16 06:30:55;;;;;;;17.75;9.52;;;19.80;75.30;;;;;;4959088;28;20050;-62
2023/12/16 06:33:22;;;;;;;13.32;8.02;;;19.80;75.40;;;;;;4961117;28;20030;-62
2023/12/16 06:35:48;;;;;;;22.35;11.60;;;19.80;75.50;;;;;;4958629;28;20140;-58
2023/12/16 06:38:14;;;;;;;17.73;10.05;;;19.90;75.00;;;;;;4957664;28;20019;-58
2023/12/16 06:40:40;;;;;;;27.48;13.10;;;20.00;75.10;;;;;;4957599;28;20077;-64
2023/12/16 06:43:05;;;;;;;21.90;12.05;;;19.90;75.00;;;;;;4960293;28;20023;-60
2023/12/16 06:45:32;;;;;;;31.95;12.02;;;20.00;75.00;;;;;;4958556;28;20023;-59
2023/12/16 06:47:58;;;;;;;24.98;10.05;;;20.10;74.80;;;;;;4957947;28;20560;-61
2023/12/16 06:50:23;;;;;;;33.10;10.27;;;20.10;74.80;;;;;;4957288;28;20391;-54
2023/12/16 06:52:49;;;;;;;28.40;9.85;;;20.10;75.10;;;;;;4980086;28;20021;-54
2023/12/16 06:55:15;;;;;;;37.47;11.00;;;20.20;75.10;;;;;;4959837;28;20015;-54
2023/12/16 06:57:41;;;;;;;12.93;5.40;;;20.10;75.00;;;;;;4942764;28;20026;-57
2023/12/16 07:00:09;;;;;;;16.92;7.85;;;20.00;74.90;;;;;;4957202;28;20051;-56
2023/12/16 07:02:36;;;;;;;11.90;6.00;;;20.00;74.80;;;;;;4957346;28;20332;-54
2023/12/16 07:05:02;;;;;;;17.17;7.72;;;20.00;74.50;;;;;;4959040;28;20051;-58
2023/12/16 07:07:28;;;;;;;10.73;5.13;;;19.90;74.30;;;;;;4960755;28;20454;-55
2023/12/16 07:09:53;;;;;;;13.55;6.05;;;19.90;74.50;;;;;;4959508;28;20432;-53
2023/12/16 07:12:19;;;;;;;12.63;5.95;;;19.90;74.50;;;;;;4958668;28;20405;-53
2023/12/16 07:14:44;;;;;;;10.50;5.55;;;19.80;74.40;;;;;;4958099;28;20031;-54
2023/12/16 07:17:10;;;;;;;7.57;5.18;;;19.80;74.40;;;;;;4962766;28;20027;-54
2023/12/16 07:19:36;;;;;;;7.05;4.70;;;19.80;74.40;;;;;;4958055;28;20134;-55
2023/12/16 07:22:02;;;;;;;17.75;4.75;;;19.80;74.40;;;;;;4965463;28;20088;-56
2023/12/16 07:24:27;;;;;;;7.40;5.20;;;19.70;74.30;;;;;;4983770;28;20019;-58
2023/12/16 07:26:53;;;;;;;7.95;4.43;;;19.70;74.30;;;;;;4960557;28;20407;-58
2023/12/16 07:29:20;;;;;;;6.47;3.90;;;19.80;74.40;;;;;;4962823;28;20115;-58
2023/12/16 07:31:47;;;;;;;9.35;4.72;;;19.70;74.30;;;;;;4959300;28;20497;-55
2023/12/16 07:34:13;;;;;;;4.90;3.75;;;19.70;74.30;;;;;;4955586;28;20027;-57
2023/12/16 07:36:38;;;;;;;9.13;4.03;;;19.70;74.20;;;;;;4956581;28;20547;-56
2023/12/16 07:39:04;;;;;;;8.25;4.20;;;19.70;74.30;;;;;;4959340;28;20039;-57
2023/12/16 07:41:30;;;;;;;7.88;4.88;;;19.70;74.20;;;;;;4977981;28;20037;-56
2023/12/16 07:43:55;;;;;;;8.25;4.05;;;19.70;74.20;;;;;;4957870;28;20089;-56
2023/12/16 07:46:21;;;;;;;7.90;4.07;;;19.70;74.10;;;;;;4957537;28;20024;-52
2023/12/16 07:48:46;;;;;;;6.70;3.90;;;19.60;74.10;;;;;;4958214;28;20032;-54
2023/12/16 07:51:16;;;;;;;18.33;7.13;;;19.60;74.10;;;;;;4969244;28;20030;-58
2023/12/16 07:53:47;;;;;;;18.10;5.60;;;19.60;74.00;;;;;;4955393;28;20023;-58
2023/12/16 07:56:23;;;;;;;13.57;5.80;;;19.50;71.00;;;;;;4957312;28;20023;-55
2023/12/16 07:58:49;;;;;;;10.02;5.07;;;19.50;69.90;;;;;;4958519;28;20037;-56
2023/12/16 08:01:16;;;;;;;7.43;4.35;;;19.50;68.40;;;;;;4961293;28;20101;-54
2023/12/16 08:03:42;;;;;;;12.77;7.35;;;19.50;71.10;;;;;;4960595;28;20038;-54
2023/12/16 08:06:10;;;;;;;22.88;7.90;;;19.50;72.80;;;;;;4957275;28;20026;-59
2023/12/16 08:08:38;;;;;;;28.05;8.20;;;19.60;72.80;;;;;;4961460;28;20023;-50
2023/12/16 08:11:04;;;;;;;18.35;6.15;;;19.70;72.30;;;;;;4961131;28;20029;-50
2023/12/16 08:13:30;;;;;;;10.18;3.20;;;19.70;71.90;;;;;;4961001;28;20098;-53
2023/12/16 08:15:56;;;;;;;11.80;5.50;;;19.60;69.00;;;;;;4957734;28;20152;-51
2023/12/16 08:18:21;;;;;;;13.88;5.63;;;19.60;68.00;;;;;;4957548;28;20024;-57
2023/12/16 08:20:47;;;;;;;13.43;5.47;;;19.50;67.80;;;;;;4958022;28;20437;-57
2023/12/16 08:23:13;;;;;;;20.83;5.65;;;19.60;71.10;;;;;;4960759;28;20097;-60
2023/12/16 08:25:39;;;;;;;18.50;6.05;;;19.80;70.50;;;;;;4959769;28;20102;-59
2023/12/16 08:28:05;;;;;;;16.88;5.57;;;19.90;70.00;;;;;;4957422;28;20110;-58
2023/12/16 08:30:30;;;;;;;19.33;5.95;;;20.00;70.10;;;;;;4957354;28;20550;-58
2023/12/16 08:32:56;;;;;;;21.40;5.47;;;20.00;70.00;;;;;;4959105;28;20028;-55
2023/12/16 08:35:21;;;;;;;10.85;4.70;;;20.00;69.90;;;;;;4942210;28;20479;-55
2023/12/16 08:37:47;;;;;;;14.13;5.20;;;20.10;70.00;;;;;;4959425;28;20055;-57
2023/12/16 08:40:13;;;;;;;22.85;5.07;;;20.10;70.10;;;;;;4957317;28;20058;-58
2023/12/16 08:42:42;;;;;;;13.05;4.95;;;20.10;70.20;;;;;;4950327;29;20031;-58
2023/12/16 08:45:09;;;;;;;20.23;5.82;;;20.20;70.10;;;;;;4943549;28;20522;-57
2023/12/16 08:47:34;;;;;;;18.73;6.35;;;20.20;70.30;;;;;;4960496;28;20023;-57
2023/12/16 08:50:00;;;;;;;19.08;6.22;;;20.20;70.50;;;;;;4957621;28;20479;-59
2023/12/16 08:52:27;;;;;;;11.52;5.38;;;20.20;70.60;;;;;;4982391;28;20028;-58
2023/12/16 08:54:53;;;;;;;14.60;5.05;;;20.30;70.70;;;;;;4961215;28;20019;-59
2023/12/16 08:57:18;;;;;;;12.27;5.68;;;20.30;70.80;;;;;;4963730;28;20027;-59
2023/12/16 08:59:44;;;;;;;14.70;5.97;;;20.30;70.90;;;;;;4962853;28;20109;-59
2023/12/16 09:02:10;;;;;;;25.15;4.97;;;20.30;70.90;;;;;;4960468;28;20035;-56
2023/12/16 09:04:35;;;;;;;12.07;4.93;;;20.30;71.00;;;;;;4958395;28;20039;-59
2023/12/16 09:07:01;;;;;;;11.25;4.80;;;20.20;71.00;;;;;;4962051;28;20024;-56
2023/12/16 09:09:26;;;;;;;14.48;5.13;;;20.20;71.00;;;;;;4963643;28;20100;-55
2023/12/16 09:11:53;;;;;;;10.57;4.20;;;20.20;71.20;;;;;;4955759;28;20023;-56
2023/12/16 09:14:19;;;;;;;14.18;4.85;;;20.20;71.30;;;;;;4959733;28;20465;-58
2023/12/16 09:16:44;;;;;;;9.52;4.68;;;20.20;71.30;;;;;;4960138;28;20027;-58
2023/12/16 09:19:11;;;;;;;12.43;3.90;;;20.10;71.30;;;;;;4963152;28;20023;-58
2023/12/16 09:21:37;;;;;;;11.88;3.45;;;20.10;71.30;;;;;;4963540;28;20474;-57
2023/12/16 09:24:04;;;;;;;15.38;4.45;;;20.10;71.20;;;;;;4959573;28;20023;-58
2023/12/16 09:26:30;;;;;;;11.77;4.57;;;20.00;71.20;;;;;;4959490;28;20054;-58
2023/12/16 09:28:55;;;;;;;7.72;2.80;;;20.00;71.20;;;;;;4961595;28;20031;-59
2023/12/16 09:31:21;;;;;;;8.80;3.28;;;20.00;71.20;;;;;;4963585;28;20455;-58
2023/12/16 09:33:47;;;;;;;6.22;2.95;;;20.00;71.20;;;;;;4961888;28;20490;-58
2023/12/16 09:36:13;;;;;;;7.03;3.03;;;20.00;71.30;;;;;;4959417;28;20027;-57
2023/12/16 09:38:40;;;;;;;11.48;3.47;;;20.00;71.30;;;;;;4960069;28;20035;-59
2023/12/16 09:41:21;;;;;;;7.97;3.42;;;20.00;71.30;;;;;;4963448;28;20018;-57
2023/12/16 09:43:51;;;;;;;5.43;2.40;;;20.00;71.30;;;;;;4962635;28;20049;-58
2023/12/16 09:46:19;;;;;;;8.95;3.72;;;19.90;71.30;;;;;;4960304;28;20637;-58
2023/12/16 09:48:45;;;;;;;11.35;4.30;;;19.90;71.30;;;;;;4960505;28;20053;-60
2023/12/16 09:51:11;;;;;;;8.63;2.95;;;19.90;71.30;;;;;;4970617;28;20454;-60
2023/12/16 09:53:36;;;;;;;5.28;2.88;;;19.90;71.30;;;;;;4978554;28;20027;-57
2023/12/16 09:56:02;;;;;;;8.40;2.58;;;19.80;71.30;;;;;;4959937;28;20103;-58
2023/12/16 09:58:32;;;;;;;5.55;1.95;;;19.90;71.30;;;;;;4960038;28;20019;-60
2023/12/16 10:00:59;;;;;;;5.15;2.17;;;19.90;71.30;;;;;;4962088;28;20034;-60
2023/12/16 10:03:24;;;;;;;4.22;2.38;;;19.80;71.30;;;;;;4962364;28;20023;-60
2023/12/16 10:05:50;;;;;;;5.05;2.38;;;19.80;71.30;;;;;;4961467;28;20026;-60
2023/12/16 10:08:16;;;;;;;5.43;2.45;;;19.80;71.30;;;;;;4959838;28;20019;-60
2023/12/16 10:10:42;;;;;;;5.30;2.30;;;19.80;71.30;;;;;;4959973;28;20427;-60
2023/12/16 10:13:08;;;;;;;3.47;1.58;;;19.70;71.40;;;;;;4948468;28;20023;-58
2023/12/16 10:15:34;;;;;;;5.90;2.38;;;19.70;71.40;;;;;;4962897;28;20030;-60
2023/12/16 10:18:01;;;;;;;3.13;1.80;;;19.70;71.40;;;;;;4943055;28;20110;-58
2023/12/16 10:20:28;;;;;;;7.03;2.30;;;19.70;71.40;;;;;;4959721;28;20037;-59
2023/12/16 10:22:54;;;;;;;5.65;2.17;;;19.70;71.40;;;;;;4961090;28;20089;-60
2023/12/16 10:25:19;;;;;;;5.75;2.20;;;19.70;71.40;;;;;;4962946;28;20020;-60
2023/12/16 10:27:46;;;;;;;7.68;2.05;;;19.70;71.40;;;;;;4962035;28;20080;-60
2023/12/16 10:30:12;;;;;;;4.88;2.08;;;19.70;71.40;;;;;;4959598;28;20027;-58
2023/12/16 10:32:39;;;;;;;3.35;1.73;;;19.70;71.40;;;;;;4959428;28;20026;-58
2023/12/16 10:35:06;;;;;;;6.35;2.50;;;19.70;71.40;;;;;;4962505;28;20043;-59
2023/12/16 10:37:32;;;;;;;4.53;1.58;;;19.70;71.40;;;;;;4962798;28;20057;-57
2023/12/16 10:39:58;;;;;;;5.57;1.88;;;19.70;71.40;;;;;;4960369;28;20035;-58
2023/12/16 10:42:24;;;;;;;5.15;2.13;;;19.60;71.40;;;;;;4959498;28;20080;-59
2023/12/16 10:44:51;;;;;;;3.90;1.52;;;19.60;71.40;;;;;;4960240;28;20035;-59
2023/12/16 10:47:18;;;;;;;4.43;1.83;;;19.60;71.40;;;;;;4962614;28;20023;-59
2023/12/16 10:49:45;;;;;;;6.28;1.75;;;19.60;71.40;;;;;;4962160;28;20031;-59
2023/12/16 10:52:18;;;;;;;3.35;1.52;;;19.60;71.40;;;;;;4982473;28;20019;-62
2023/12/16 10:55:00;;;;;;;2.92;1.40;;;19.60;71.40;;;;;;4959926;28;20541;-58
2023/12/16 10:57:47;;;;;;;2.40;1.70;;;19.60;71.40;;;;;;4964346;28;20096;-59
2023/12/16 11:00:20;;;;;;;2.85;1.63;;;19.60;71.40;;;;;;4954025;28;20054;-59
2023/12/16 11:02:55;;;;;;;3.28;1.60;;;19.60;71.40;;;;;;4961681;28;20051;-58
2023/12/16 11:05:32;;;;;;;4.18;1.35;;;19.60;71.40;;;;;;4963472;28;20026;-59
2023/12/16 11:08:02;;;;;;;5.15;2.03;;;19.60;71.40;;;;;;4959973;28;20058;-58
2023/12/16 11:10:31;;;;;;;3.53;1.55;;;19.60;71.40;;;;;;4959055;28;20015;-57
2023/12/16 11:13:02;;;;;;;3.33;1.30;;;19.60;71.30;;;;;;4960719;28;20054;-59
2023/12/16 11:15:32;;;;;;;6.63;2.00;;;19.60;71.30;;;;;;4962004;28;20452;-59
2023/12/16 11:18:14;;;;;;;3.47;1.52;;;19.60;71.30;;;;;;4959729;28;20037;-59
2023/12/16 11:20:54;;;;;;;4.78;1.73;;;19.60;71.30;;;;;;4958864;28;20027;-59
2023/12/16 11:23:22;;;;;;;4.47;1.40;;;19.60;71.30;;;;;;4950259;28;20030;-59
2023/12/16 11:25:49;;;;;;;4.38;1.70;;;19.50;71.30;;;;;;4960952;28;20034;-59
2023/12/16 11:28:15;;;;;;;3.95;1.38;;;19.50;71.30;;;;;;4958905;28;20038;-59
2023/12/16 11:30:43;;;;;;;3.67;1.60;;;19.60;71.30;;;;;;4958743;28;20483;-59
2023/12/16 11:33:09;;;;;;;3.65;1.30;;;19.60;71.30;;;;;;4947587;28;20046;-59
2023/12/16 11:35:45;;;;;;;3.15;1.15;;;19.60;71.20;;;;;;4961743;28;20115;-59
2023/12/16 11:38:46;;;;;;;2.83;1.20;;;19.60;71.20;;;;;;4951968;28;20054;-59
2023/12/16 11:41:34;;;;;;;2.55;1.30;;;19.60;71.20;;;;;;4948124;28;20478;-59
2023/12/16 11:44:00;;;;;;;2.03;1.33;;;19.60;71.10;;;;;;4958938;28;20046;-58
2023/12/16 11:46:42;;;;;;;3.47;1.30;;;19.70;71.10;;;;;;4958362;28;20414;-59
2023/12/16 11:49:16;;;;;;;1.95;1.13;;;19.60;71.10;;;;;;4946709;28;20587;-58
2023/12/16 11:51:43;;;;;;;3.38;1.23;;;19.60;71.10;;;;;;4984508;28;20052;-57
2023/12/16 11:54:09;;;;;;;2.22;0.90;;;19.60;71.10;;;;;;4958428;28;20072;-59
2023/12/16 11:56:36;;;;;;;5.13;1.30;;;19.60;71.00;;;;;;4958180;28;20032;-58
2023/12/16 11:59:03;;;;;;;2.28;1.30;;;19.60;71.00;;;;;;4960714;28;20026;-59
2023/12/16 12:01:31;;;;;;;1.90;0.85;;;19.70;71.00;;;;;;4962028;28;20489;-59
2023/12/16 12:03:58;;;;;;;2.35;1.10;;;19.70;71.00;;;;;;4959219;28;20031;-58
2023/12/16 12:06:26;;;;;;;1.58;0.82;;;19.70;71.00;;;;;;4957983;28;20027;-59
2023/12/16 12:08:52;;;;;;;3.00;1.23;;;19.60;70.90;;;;;;4959311;28;20050;-59
2023/12/16 12:11:18;;;;;;;2.75;1.10;;;19.60;71.00;;;;;;4961357;28;20440;-59
2023/12/16 12:13:44;;;;;;;1.58;1.02;;;19.60;71.00;;;;;;4960588;28;20371;-59
2023/12/16 12:16:12;;;;;;;3.83;1.08;;;19.60;70.90;;;;;;4958173;28;20047;-59
2023/12/16 12:18:39;;;;;;;1.77;0.98;;;19.60;70.90;;;;;;4958147;28;20069;-59
2023/12/16 12:21:06;;;;;;;3.38;0.88;;;19.60;71.00;;;;;;4961130;28;20106;-59
2023/12/16 12:23:32;;;;;;;1.60;0.82;;;19.60;71.00;;;;;;4961341;28;20019;-59
2023/12/16 12:25:58;;;;;;;2.13;0.98;;;19.60;71.00;;;;;;4965031;28;20445;-59
2023/12/16 12:28:24;;;;;;;1.75;1.10;;;19.60;71.00;;;;;;4957992;28;20051;-57
2023/12/16 12:30:50;;;;;;;1.13;0.82;;;19.60;71.00;;;;;;4988296;28;20054;-58
2023/12/16 12:33:16;;;;;;;2.05;1.00;;;19.60;71.00;;;;;;4968281;28;20045;-58